Weather at Ojibwa Airpark

Public forecast

Using degrees Fahrenheit for public forecast. Weather courtesy of forecast.io.

Closest aviation weather report (METAR) to Ojibwa Airpark

Closest report is Mount Pleasant Municipal Airport, 12.9 nm (24.0 km) ESE. Retrieved 2020/09/24 08:35 UTC (24 minutes ago):

KMOP 240835Z AUTO 00000KT 5SM BR CLR 12/12 A2993 RMK AO2 T01230123

Closest aviation forecast (TAF) to Ojibwa Airpark

Closest forecast is MBS International Airport, 41.7 nm (77.2 km) ESE. Retrieved 2020/09/24 06:22 UTC (3 hours ago):

TAF KMBS 240520Z 2406/2506 24004KT P6SM SCT250 FM240900 VRB04KT P6SM FEW200 TEMPO 2410/2413 6SM HZ FM241600 23010KT P6SM SCT200 FM250000 22005KT P6SM BKN200